Time;durP1;ratioP1;P1;durP2;ratioP2;P2;SDS_P1;SDS_P2;PMS_P1;PMS_P2;Temp;Humidity;BMP_temperature;BMP_pressure;BME280_temperature;BME280_humidity;BME280_pressure;Samples;Min_cycle;Max_cycle;Signal;HPM_P1;HPM_P2
2021/03/20 00:02:16;;;;;;;4.93;1.60;;;4.10;99.90;;;;;;10413081;28;20061;-50
2021/03/20 00:07:38;;;;;;;2.35;1.17;;;4.00;99.90;;;;;;10415085;28;20042;-51
2021/03/20 00:13:00;;;;;;;3.28;1.65;;;4.00;99.90;;;;;;10414905;28;20098;-50
2021/03/20 00:18:22;;;;;;;4.13;1.55;;;3.90;99.90;;;;;;10411164;28;20133;-50
2021/03/20 00:23:43;;;;;;;3.90;1.25;;;3.90;99.90;;;;;;10411799;28;20038;-50
2021/03/20 00:29:05;;;;;;;3.15;1.30;;;3.80;99.90;;;;;;10413844;28;20147;-50
2021/03/20 00:34:26;;;;;;;5.15;1.77;;;3.80;99.90;;;;;;10406110;28;20063;-50
2021/03/20 00:39:47;;;;;;;2.47;1.48;;;3.70;99.90;;;;;;10414496;28;20070;-50
2021/03/20 00:45:10;;;;;;;3.28;1.38;;;3.70;99.90;;;;;;10415974;28;20397;-50
2021/03/20 00:50:31;;;;;;;1.95;1.25;;;3.60;99.90;;;;;;10412830;28;20044;-50
2021/03/20 00:55:53;;;;;;;2.78;1.55;;;3.60;99.90;;;;;;10416608;28;20041;-50
2021/03/20 01:01:17;;;;;;;4.78;1.60;;;3.50;99.90;;;;;;10422239;28;20707;-50
2021/03/20 01:06:38;;;;;;;3.03;1.48;;;3.40;99.90;;;;;;10417213;28;20097;-50
2021/03/20 01:12:00;;;;;;;3.10;1.42;;;3.40;99.90;;;;;;10419155;28;20084;-50
2021/03/20 01:17:21;;;;;;;1.88;0.77;;;3.40;99.90;;;;;;10420791;28;20064;-50
2021/03/20 01:22:43;;;;;;;5.65;1.42;;;3.30;99.90;;;;;;10412293;28;20146;-50
2021/03/20 01:28:05;;;;;;;2.40;1.23;;;3.20;99.90;;;;;;10413921;28;20553;-50
2021/03/20 01:33:27;;;;;;;2.78;1.20;;;3.10;99.90;;;;;;10421399;28;20052;-50
2021/03/20 01:38:48;;;;;;;4.05;1.52;;;3.10;99.90;;;;;;10415242;28;20041;-50
2021/03/20 01:44:21;;;;;;;2.58;1.40;;;3.10;99.90;;;;;;10416266;28;20048;-51
2021/03/20 01:49:45;;;;;;;4.60;0.70;;;3.10;99.90;;;;;;10411829;28;20036;-50
2021/03/20 01:55:10;;;;;;;5.85;2.28;;;3.00;99.90;;;;;;10414196;28;20045;-50
2021/03/20 02:00:35;;;;;;;1.88;0.98;;;2.90;99.90;;;;;;10423913;28;20195;-50
2021/03/20 02:05:56;;;;;;;4.32;1.15;;;2.80;99.90;;;;;;10407459;28;20123;-50
2021/03/20 02:11:34;;;;;;;3.85;1.40;;;2.80;99.90;;;;;;10414703;28;20049;-50
2021/03/20 02:17:14;;;;;;;2.42;0.80;;;2.70;99.90;;;;;;10408741;28;20606;-50
2021/03/20 02:23:12;;;;;;;5.43;2.00;;;2.60;99.90;;;;;;10414967;28;20404;-50
2021/03/20 02:28:50;;;;;;;2.50;1.05;;;2.50;99.90;;;;;;10406740;28;20045;-50
2021/03/20 02:34:11;;;;;;;3.65;1.92;;;2.50;99.90;;;;;;10411291;28;20032;-50
2021/03/20 02:39:49;;;;;;;3.00;0.82;;;2.50;99.90;;;;;;10420638;28;20553;-50
2021/03/20 02:45:23;;;;;;;3.40;1.50;;;2.40;99.90;;;;;;10424581;28;20426;-50
2021/03/20 02:50:55;;;;;;;2.67;1.38;;;2.30;99.90;;;;;;10422668;28;20037;-50
2021/03/20 02:56:22;;;;;;;3.42;1.70;;;2.20;99.90;;;;;;10417928;28;20087;-50
2021/03/20 03:01:47;;;;;;;4.47;1.63;;;2.20;99.90;;;;;;10427730;28;20357;-50
2021/03/20 03:07:17;;;;;;;2.05;0.80;;;2.10;99.90;;;;;;10423934;28;20400;-50
2021/03/20 03:12:44;;;;;;;2.85;1.38;;;2.10;99.90;;;;;;10432420;28;20041;-50
2021/03/20 03:18:10;;;;;;;4.82;1.98;;;2.00;99.90;;;;;;10417504;28;20072;-50
2021/03/20 03:23:36;;;;;;;2.85;1.02;;;1.90;99.90;;;;;;10423758;28;20041;-50
2021/03/20 03:29:22;;;;;;;2.55;1.17;;;1.90;99.90;;;;;;10419219;28;20040;-50
2021/03/20 03:35:06;;;;;;;6.60;1.38;;;1.80;99.90;;;;;;10421022;28;20384;-50
2021/03/20 03:40:39;;;;;;;3.83;1.17;;;1.70;99.90;;;;;;10419622;28;20533;-50
2021/03/20 03:46:00;;;;;;;2.13;1.55;;;1.60;99.90;;;;;;10424377;28;20425;-50
2021/03/20 03:51:24;;;;;;;2.95;1.85;;;1.50;99.90;;;;;;10415207;28;20053;-50
2021/03/20 03:57:11;;;;;;;5.25;1.55;;;1.50;99.90;;;;;;10422551;28;20079;-52
2021/03/20 04:02:53;;;;;;;3.45;1.30;;;1.50;99.90;;;;;;10425462;28;20049;-50
2021/03/20 04:08:32;;;;;;;2.92;1.10;;;1.50;99.90;;;;;;10416930;28;20037;-52
2021/03/20 04:14:12;;;;;;;3.13;1.08;;;1.40;99.90;;;;;;10420745;28;20033;-52
2021/03/20 04:20:02;;;;;;;5.03;1.27;;;1.30;99.90;;;;;;10418160;28;20045;-52
2021/03/20 04:25:26;;;;;;;3.65;1.27;;;1.20;99.90;;;;;;10416401;28;20595;-50
2021/03/20 04:30:51;;;;;;;2.92;1.52;;;1.20;99.90;;;;;;10421401;28;20121;-50
2021/03/20 04:36:22;;;;;;;8.30;2.47;;;1.20;99.90;;;;;;10417321;28;20448;-50
2021/03/20 04:41:44;;;;;;;1.30;0.73;;;1.20;99.90;;;;;;10426688;28;20048;-50
2021/03/20 04:47:14;;;;;;;3.65;1.48;;;1.10;99.90;;;;;;10420134;28;20124;-49
2021/03/20 04:52:42;;;;;;;2.17;0.93;;;1.10;99.90;;;;;;10423401;28;20044;-50
2021/03/20 04:58:30;;;;;;;6.47;2.08;;;1.10;99.90;;;;;;10423068;28;20688;-50
2021/03/20 05:03:58;;;;;;;3.17;1.48;;;1.00;99.90;;;;;;10425907;28;20128;-50
2021/03/20 05:09:23;;;;;;;3.37;1.67;;;1.10;99.90;;;;;;10421751;28;20396;-52
2021/03/20 05:14:58;;;;;;;4.25;2.03;;;1.20;99.90;;;;;;10421308;28;20668;-50
2021/03/20 05:20:19;;;;;;;2.67;1.50;;;1.40;99.90;;;;;;10413178;28;20192;-49
2021/03/20 05:25:40;;;;;;;3.28;2.00;;;1.50;99.90;;;;;;10417244;28;20037;-49
2021/03/20 05:31:02;;;;;;;4.80;1.52;;;1.60;99.90;;;;;;10422859;28;20075;-50
2021/03/20 05:36:24;;;;;;;4.00;1.20;;;1.70;99.90;;;;;;10412334;28;20166;-49
2021/03/20 05:42:00;;;;;;;4.13;1.52;;;1.80;99.90;;;;;;10423513;28;20033;-49
2021/03/20 05:47:42;;;;;;;4.85;1.27;;;1.80;99.90;;;;;;10427843;28;20032;-49
2021/03/20 05:53:16;;;;;;;5.25;1.50;;;1.90;99.90;;;;;;10422218;28;20104;-49
2021/03/20 05:58:52;;;;;;;2.95;0.95;;;2.00;99.90;;;;;;10425018;28;20539;-49
2021/03/20 06:04:27;;;;;;;4.80;1.50;;;2.10;99.90;;;;;;10426971;28;20041;-49
2021/03/20 06:10:27;;;;;;;2.53;1.50;;;2.10;99.90;;;;;;10418970;28;20099;-49
2021/03/20 06:16:22;;;;;;;5.18;2.08;;;2.20;99.90;;;;;;10426715;28;20534;-49
2021/03/20 06:22:02;;;;;;;5.43;2.00;;;2.20;99.90;;;;;;10427049;28;20044;-50
2021/03/20 06:27:39;;;;;;;4.90;1.48;;;2.40;99.90;;;;;;10422517;28;20037;-50
2021/03/20 06:33:29;;;;;;;3.60;1.25;;;2.40;99.90;;;;;;10420797;28;20053;-50
2021/03/20 06:39:00;;;;;;;4.10;1.48;;;2.50;99.90;;;;;;10424956;28;20333;-50
2021/03/20 06:44:41;;;;;;;4.88;1.92;;;2.60;99.90;;;;;;10427711;28;20439;-50
2021/03/20 06:50:20;;;;;;;4.95;1.10;;;2.70;99.90;;;;;;10423129;28;20106;-50
2021/03/20 06:55:47;;;;;;;4.45;2.03;;;2.70;99.90;;;;;;10430209;28;20033;-50
2021/03/20 07:01:20;;;;;;;5.32;2.35;;;2.70;99.90;;;;;;10424509;28;20033;-50
2021/03/20 07:06:57;;;;;;;6.65;2.28;;;2.90;99.90;;;;;;10421868;28;20053;-50
2021/03/20 07:12:23;;;;;;;3.10;1.85;;;3.20;99.90;;;;;;10418321;28;20043;-50
2021/03/20 07:17:44;;;;;;;4.03;1.63;;;3.30;99.90;;;;;;10414098;28;20055;-50
2021/03/20 07:23:13;;;;;;;4.90;1.73;;;3.50;99.90;;;;;;10423276;28;20511;-50
2021/03/20 07:28:35;;;;;;;3.55;1.65;;;3.60;99.90;;;;;;10416054;28;20029;-50
2021/03/20 07:34:14;;;;;;;5.15;1.95;;;3.70;99.90;;;;;;10423459;28;20493;-50
2021/03/20 07:39:48;;;;;;;3.80;1.30;;;3.70;99.90;;;;;;10418377;28;20480;-50
2021/03/20 07:45:18;;;;;;;3.42;1.73;;;3.80;99.90;;;;;;10421471;28;20054;-50
2021/03/20 07:50:46;;;;;;;3.35;1.55;;;3.90;99.90;;;;;;10418217;28;20162;-50
2021/03/20 07:56:12;;;;;;;4.90;2.20;;;4.00;99.90;;;;;;10421156;28;20052;-50
2021/03/20 08:01:36;;;;;;;5.55;2.00;;;4.10;99.90;;;;;;10417720;28;20344;-50
2021/03/20 08:06:57;;;;;;;3.25;1.63;;;4.10;99.90;;;;;;10412246;28;20048;-50
2021/03/20 08:12:18;;;;;;;3.83;1.80;;;4.20;99.90;;;;;;10417326;28;20045;-50
2021/03/20 08:17:40;;;;;;;2.25;1.30;;;4.20;99.90;;;;;;10393819;28;20429;-50
2021/03/20 08:23:24;;;;;;;7.00;2.22;;;4.30;99.90;;;;;;10415088;28;20764;-50
2021/03/20 08:29:15;;;;;;;3.00;1.63;;;4.40;99.90;;;;;;10398708;28;20040;-50
2021/03/20 08:34:41;;;;;;;4.15;1.65;;;4.40;99.90;;;;;;10418260;28;20124;-50
2021/03/20 08:40:31;;;;;;;4.93;1.48;;;4.60;99.90;;;;;;10404006;28;21663;-50
2021/03/20 08:46:10;;;;;;;4.95;1.42;;;4.90;99.90;;;;;;10402318;28;20041;-50
2021/03/20 08:51:36;;;;;;;6.03;1.35;;;5.10;99.90;;;;;;10413014;28;20397;-50
2021/03/20 08:57:24;;;;;;;2.95;1.42;;;5.20;99.90;;;;;;10395182;28;20077;-50
2021/03/20 09:02:48;;;;;;;5.75;2.65;;;5.50;99.90;;;;;;10409598;28;20393;-50
2021/03/20 09:08:14;;;;;;;7.07;1.58;;;5.80;99.90;;;;;;10401144;28;20056;-50
2021/03/20 09:13:47;;;;;;;4.57;1.75;;;6.20;99.90;;;;;;10395782;28;20531;-50
2021/03/20 09:19:17;;;;;;;4.80;1.77;;;6.20;99.90;;;;;;10410103;28;20045;-50
2021/03/20 09:24:49;;;;;;;4.22;1.75;;;7.00;99.90;;;;;;10418584;28;20029;-50
2021/03/20 09:30:20;;;;;;;4.75;1.10;;;7.40;99.90;;;;;;10415760;28;20381;-50
2021/03/20 09:36:15;;;;;;;2.08;1.02;;;7.70;99.90;;;;;;10417902;28;20388;-50
2021/03/20 09:41:37;;;;;;;3.00;0.90;;;7.80;99.90;;;;;;10416128;28;20062;-50
2021/03/20 09:46:59;;;;;;;3.40;1.00;;;8.10;99.90;;;;;;10404237;28;20025;-50
2021/03/20 09:52:35;;;;;;;2.38;0.90;;;7.90;99.90;;;;;;10376854;28;20041;-50
2021/03/20 09:57:58;;;;;;;3.80;0.88;;;7.80;99.90;;;;;;10363471;28;20040;-50
2021/03/20 10:03:43;;;;;;;2.95;0.95;;;8.10;99.90;;;;;;10369084;28;20041;-50
2021/03/20 10:09:09;;;;;;;2.00;0.65;;;8.30;99.90;;;;;;10375854;28;20042;-50
2021/03/20 10:14:38;;;;;;;2.38;0.65;;;8.60;99.90;;;;;;10384262;28;20046;-50
2021/03/20 10:20:11;;;;;;;2.30;1.10;;;9.00;99.90;;;;;;10366149;28;20460;-50
2021/03/20 10:25:32;;;;;;;3.15;1.50;;;9.10;99.90;;;;;;10365822;28;20092;-50
2021/03/20 10:31:00;;;;;;;3.33;0.98;;;9.00;99.90;;;;;;10374887;28;20104;-50
2021/03/20 10:36:28;;;;;;;3.33;1.23;;;9.20;99.90;;;;;;10361646;28;20048;-50
2021/03/20 10:41:51;;;;;;;4.45;2.20;;;9.30;99.90;;;;;;10379820;28;20372;-51
2021/03/20 10:47:12;;;;;;;4.75;1.10;;;9.30;99.90;;;;;;10376878;28;20159;-50
2021/03/20 10:52:40;;;;;;;2.45;0.90;;;9.70;99.90;;;;;;10374159;28;20045;-50
2021/03/20 10:58:01;;;;;;;3.42;1.40;;;10.40;99.90;;;;;;10363987;28;20033;-50
2021/03/20 11:03:29;;;;;;;6.57;2.42;;;10.80;99.90;;;;;;10358532;28;20055;-51
2021/03/20 11:09:15;;;;;;;2.53;1.20;;;11.70;99.90;;;;;;10375686;28;20199;-50
2021/03/20 11:14:57;;;;;;;3.40;1.42;;;11.60;99.90;;;;;;10370517;28;20569;-50
2021/03/20 11:20:22;;;;;;;2.85;1.38;;;11.90;99.90;;;;;;10340543;28;20321;-51
2021/03/20 11:25:43;;;;;;;3.28;0.95;;;12.80;99.00;;;;;;10363329;28;20685;-51
2021/03/20 11:31:06;;;;;;;2.90;1.15;;;13.50;94.00;;;;;;10354396;28;20645;-51
2021/03/20 11:36:28;;;;;;;2.75;1.25;;;13.90;90.40;;;;;;10352128;28;20503;-50
2021/03/20 11:42:04;;;;;;;4.07;1.70;;;14.70;88.90;;;;;;10363480;28;20504;-50
2021/03/20 11:47:30;;;;;;;3.00;1.42;;;13.90;90.60;;;;;;10362544;28;20042;-51
2021/03/20 11:52:54;;;;;;;5.15;1.55;;;14.30;92.60;;;;;;10361677;28;20037;-51
2021/03/20 11:58:34;;;;;;;2.53;1.35;;;15.30;90.00;;;;;;10338531;28;20257;-51
2021/03/20 12:03:57;;;;;;;3.92;1.65;;;16.80;70.80;;;;;;10325052;28;20042;-52
2021/03/20 12:09:24;;;;;;;3.60;1.60;;;17.50;68.50;;;;;;10315454;28;20056;-51
2021/03/20 12:14:47;;;;;;;3.45;1.67;;;16.80;78.40;;;;;;10330090;28;20137;-51
2021/03/20 12:20:33;;;;;;;3.75;1.50;;;15.50;85.60;;;;;;10366663;28;20041;-51
2021/03/20 12:25:57;;;;;;;5.00;1.92;;;14.30;95.70;;;;;;10354122;28;20565;-51
2021/03/20 12:31:20;;;;;;;4.75;1.48;;;14.70;93.40;;;;;;10353079;28;20045;-51
2021/03/20 12:36:49;;;;;;;2.58;1.40;;;15.30;94.10;;;;;;10366843;28;20036;-51
2021/03/20 12:42:10;;;;;;;4.13;1.90;;;13.90;96.10;;;;;;10360524;28;20042;-50
2021/03/20 12:47:31;;;;;;;3.53;1.20;;;12.60;99.90;;;;;;10362176;28;20298;-50
2021/03/20 12:52:52;;;;;;;4.88;1.52;;;12.30;99.90;;;;;;10371208;28;20562;-51
2021/03/20 12:58:13;;;;;;;2.72;1.33;;;13.00;99.90;;;;;;10366471;28;20625;-51
2021/03/20 13:03:35;;;;;;;3.20;1.27;;;14.10;99.90;;;;;;10374163;28;20076;-51
2021/03/20 13:08:56;;;;;;;3.60;1.60;;;14.00;99.90;;;;;;10373859;28;20057;-51
2021/03/20 13:14:17;;;;;;;3.65;1.40;;;13.20;99.90;;;;;;10374160;28;20072;-51
2021/03/20 13:19:38;;;;;;;4.28;1.48;;;12.10;99.90;;;;;;10371737;28;20081;-51
2021/03/20 13:24:59;;;;;;;3.78;1.70;;;11.70;99.90;;;;;;10337673;28;20136;-51
2021/03/20 13:30:26;;;;;;;3.00;0.90;;;11.80;99.90;;;;;;10371161;28;20046;-51
2021/03/20 13:35:47;;;;;;;1.95;1.17;;;11.80;99.90;;;;;;10370810;28;20075;-50
2021/03/20 13:41:09;;;;;;;3.38;1.52;;;11.50;99.90;;;;;;10373054;28;20058;-51
2021/03/20 13:46:30;;;;;;;2.55;1.10;;;11.20;99.90;;;;;;10368562;28;20052;-51
2021/03/20 13:51:51;;;;;;;1.80;0.95;;;10.90;99.90;;;;;;10375665;28;20455;-50
2021/03/20 13:57:12;;;;;;;4.10;1.10;;;11.30;99.90;;;;;;10360099;28;20045;-51
2021/03/20 14:02:33;;;;;;;2.72;0.88;;;11.50;99.90;;;;;;10360089;28;20049;-50
2021/03/20 14:07:54;;;;;;;1.83;0.82;;;10.90;99.90;;;;;;10356685;28;20438;-50
2021/03/20 14:13:17;;;;;;;3.70;1.40;;;10.40;99.90;;;;;;10364710;28;20037;-50
2021/03/20 14:18:38;;;;;;;2.90;0.98;;;10.00;99.90;;;;;;10354762;28;20096;-50
2021/03/20 14:23:59;;;;;;;1.33;0.73;;;9.70;99.90;;;;;;10338387;28;20133;-50
2021/03/20 14:29:20;;;;;;;4.28;0.88;;;9.60;99.90;;;;;;10360785;28;20497;-50
2021/03/20 14:34:41;;;;;;;2.58;0.38;;;9.50;99.90;;;;;;10354557;28;20053;-50
2021/03/20 14:40:03;;;;;;;0.95;0.40;;;9.50;99.90;;;;;;10351395;28;20046;-50
2021/03/20 14:45:24;;;;;;;1.08;0.50;;;9.50;99.90;;;;;;10354022;28;20044;-50
2021/03/20 14:50:46;;;;;;;2.40;0.95;;;9.20;99.90;;;;;;10352142;28;20037;-50
2021/03/20 14:56:07;;;;;;;1.42;0.60;;;9.10;99.90;;;;;;10346067;28;20049;-50
2021/03/20 15:01:28;;;;;;;2.42;0.60;;;9.10;99.90;;;;;;10352273;28;20478;-50
2021/03/20 15:06:49;;;;;;;1.67;0.63;;;9.10;99.90;;;;;;10354739;28;20372;-50
2021/03/20 15:12:10;;;;;;;2.88;0.95;;;9.10;99.90;;;;;;10336440;28;20493;-50
2021/03/20 15:17:31;;;;;;;1.75;0.55;;;9.20;99.90;;;;;;10358398;28;20046;-50
2021/03/20 15:22:52;;;;;;;1.65;0.57;;;8.90;99.90;;;;;;10343571;28;20048;-51
2021/03/20 15:28:13;;;;;;;1.10;0.38;;;8.90;99.90;;;;;;10342521;28;20586;-50
2021/03/20 15:33:34;;;;;;;1.00;0.38;;;8.90;99.90;;;;;;10354206;28;20051;-50
2021/03/20 15:38:55;;;;;;;1.02;0.30;;;8.90;99.90;;;;;;10354681;28;20128;-51
2021/03/20 15:44:16;;;;;;;1.42;0.50;;;8.80;99.90;;;;;;10345807;28;20077;-50
2021/03/20 15:49:38;;;;;;;1.35;0.55;;;8.70;99.90;;;;;;10355063;28;20168;-50
2021/03/20 15:54:59;;;;;;;1.10;0.20;;;8.70;99.90;;;;;;10355647;28;20350;-50
2021/03/20 16:00:21;;;;;;;1.10;0.50;;;8.60;99.90;;;;;;10316699;28;20072;-50
2021/03/20 16:05:42;;;;;;;2.35;0.90;;;8.60;99.90;;;;;;10312748;28;20238;-50
2021/03/20 16:11:05;;;;;;;1.00;0.35;;;8.60;99.90;;;;;;10312646;28;20401;-50
2021/03/20 16:16:27;;;;;;;0.50;0.30;;;8.40;99.90;;;;;;10359719;28;20057;-50
2021/03/20 16:21:48;;;;;;;1.73;0.50;;;8.40;99.90;;;;;;10355630;28;20049;-50
2021/03/20 16:27:09;;;;;;;1.23;0.60;;;8.40;99.90;;;;;;10335970;28;20038;-50
2021/03/20 16:32:30;;;;;;;0.93;0.30;;;8.40;99.90;;;;;;10350754;28;20104;-50
2021/03/20 16:37:51;;;;;;;2.90;1.30;;;8.10;99.90;;;;;;10346433;28;20042;-50
2021/03/20 16:43:12;;;;;;;2.47;1.10;;;8.00;99.90;;;;;;10338563;28;20038;-50
2021/03/20 16:48:34;;;;;;;3.75;1.25;;;7.90;99.90;;;;;;10345752;28;20085;-50
2021/03/20 16:53:56;;;;;;;3.22;0.85;;;7.80;99.90;;;;;;10343685;28;20100;-50
2021/03/20 16:59:18;;;;;;;1.10;0.40;;;7.60;99.90;;;;;;10347124;28;20061;-50
2021/03/20 17:04:39;;;;;;;1.98;0.73;;;7.60;99.90;;;;;;10347247;28;20045;-50
2021/03/20 17:10:03;;;;;;;2.22;0.80;;;7.40;99.90;;;;;;10333785;28;20118;-50
2021/03/20 17:15:25;;;;;;;1.67;0.32;;;7.50;99.90;;;;;;10352705;28;20045;-50
2021/03/20 17:20:48;;;;;;;6.13;0.88;;;7.50;99.90;;;;;;10355737;28;20042;-50
2021/03/20 17:26:11;;;;;;;13.30;4.30;;;7.50;99.90;;;;;;10338565;28;20413;-50
2021/03/20 17:31:32;;;;;;;47.35;17.00;;;7.50;99.90;;;;;;10324374;28;20046;-50
2021/03/20 17:36:53;;;;;;;7.90;3.47;;;7.40;99.90;;;;;;10308922;28;20038;-50
2021/03/20 17:42:14;;;;;;;1.88;0.77;;;7.40;99.90;;;;;;10358783;28;20172;-50
2021/03/20 17:47:35;;;;;;;1.75;0.80;;;7.20;99.90;;;;;;10349072;28;20047;-50
2021/03/20 17:52:56;;;;;;;2.47;0.73;;;7.30;99.90;;;;;;10349980;28;20373;-50
2021/03/20 17:58:19;;;;;;;3.35;1.73;;;7.20;99.90;;;;;;10363098;28;20037;-50
2021/03/20 18:03:41;;;;;;;5.20;2.03;;;7.20;99.90;;;;;;10344591;28;20063;-50
2021/03/20 18:09:03;;;;;;;5.20;1.27;;;7.10;99.90;;;;;;10343760;28;20027;-51
2021/03/20 18:14:24;;;;;;;1.95;0.77;;;7.20;99.90;;;;;;10349577;28;20052;-51
2021/03/20 18:19:45;;;;;;;3.03;0.98;;;7.20;99.90;;;;;;10355253;28;20541;-50
2021/03/20 18:25:09;;;;;;;6.20;1.75;;;7.30;99.90;;;;;;10358470;28;20831;-51
2021/03/20 18:30:32;;;;;;;4.00;2.08;;;7.20;99.90;;;;;;10356282;28;20048;-51
2021/03/20 18:35:54;;;;;;;2.38;0.95;;;7.00;99.90;;;;;;10358579;28;20060;-51
2021/03/20 18:41:17;;;;;;;7.20;2.30;;;7.10;99.90;;;;;;10338583;28;20041;-51
2021/03/20 18:46:42;;;;;;;3.75;1.42;;;7.00;99.90;;;;;;10360621;28;20128;-51
2021/03/20 18:52:03;;;;;;;9.70;4.28;;;7.10;99.90;;;;;;10357199;28;20132;-51
2021/03/20 18:57:24;;;;;;;5.85;2.97;;;7.20;99.90;;;;;;10359036;28;20510;-51
2021/03/20 19:02:45;;;;;;;6.35;2.25;;;7.10;99.90;;;;;;10360101;28;20037;-51
2021/03/20 19:08:07;;;;;;;3.78;1.63;;;7.10;99.90;;;;;;10331598;28;20037;-51
2021/03/20 19:13:29;;;;;;;7.00;1.75;;;7.10;99.90;;;;;;10350146;28;20038;-51
2021/03/20 19:18:51;;;;;;;4.43;1.60;;;7.10;99.90;;;;;;10348645;28;20088;-51
2021/03/20 19:24:12;;;;;;;9.98;2.53;;;7.20;99.90;;;;;;10351730;28;20038;-51
2021/03/20 19:29:33;;;;;;;10.68;3.35;;;7.30;99.90;;;;;;10344301;28;20030;-51
2021/03/20 19:34:54;;;;;;;5.75;2.20;;;7.30;99.90;;;;;;10363417;28;20112;-50
2021/03/20 19:40:35;;;;;;;7.45;3.78;;;7.20;99.90;;;;;;10350355;28;20532;-50
2021/03/20 19:45:56;;;;;;;9.02;1.27;;;7.20;99.90;;;;;;10336959;28;20532;-51
2021/03/20 19:51:17;;;;;;;1.48;0.68;;;7.20;99.90;;;;;;10342441;28;20068;-51
2021/03/20 19:56:38;;;;;;;1.15;0.52;;;7.20;99.90;;;;;;10353949;28;20068;-51
2021/03/20 20:01:59;;;;;;;1.77;0.73;;;7.20;99.90;;;;;;10347309;28;20056;-51
2021/03/20 20:07:20;;;;;;;2.15;0.50;;;7.10;99.90;;;;;;10339063;28;20274;-51
2021/03/20 20:12:44;;;;;;;1.08;0.32;;;7.00;99.90;;;;;;10332381;28;20483;-51
2021/03/20 20:18:14;;;;;;;0.90;0.35;;;7.00;99.90;;;;;;10337615;28;20513;-51
2021/03/20 20:23:35;;;;;;;0.25;0.10;;;6.90;99.90;;;;;;10340445;28;20400;-51
2021/03/20 20:29:06;;;;;;;1.55;0.32;;;6.80;99.90;;;;;;10349698;28;20030;-51
2021/03/20 20:34:27;;;;;;;0.80;0.30;;;6.70;99.90;;;;;;10345929;28;20049;-51
2021/03/20 20:39:48;;;;;;;3.08;0.35;;;6.80;99.90;;;;;;10343964;28;20515;-51
2021/03/20 20:45:12;;;;;;;0.80;0.25;;;6.80;99.90;;;;;;10357028;28;20087;-51
2021/03/20 20:50:33;;;;;;;0.40;0.15;;;6.80;99.90;;;;;;10348934;28;20033;-51
2021/03/20 20:55:54;;;;;;;1.58;0.52;;;6.90;99.90;;;;;;10357134;28;20545;-51
2021/03/20 21:01:15;;;;;;;1.70;0.50;;;6.90;99.90;;;;;;10350801;28;20052;-51
2021/03/20 21:06:36;;;;;;;2.10;0.70;;;6.90;99.90;;;;;;10346998;28;20045;-51
2021/03/20 21:11:57;;;;;;;0.82;0.30;;;6.90;99.90;;;;;;10341570;28;20066;-51
2021/03/20 21:17:18;;;;;;;2.22;0.85;;;6.90;99.90;;;;;;10352915;28;20476;-51
2021/03/20 21:22:40;;;;;;;1.48;0.52;;;6.80;99.90;;;;;;10362078;28;20486;-51
2021/03/20 21:28:01;;;;;;;2.03;0.77;;;6.80;99.90;;;;;;10353271;28;20065;-51
2021/03/20 21:33:22;;;;;;;0.80;0.75;;;6.80;99.90;;;;;;10339493;28;21025;-51
2021/03/20 21:38:43;;;;;;;1.48;0.57;;;6.80;99.90;;;;;;10350509;28;20045;-51
2021/03/20 21:44:04;;;;;;;0.70;0.47;;;6.90;99.90;;;;;;10332849;28;20051;-51
2021/03/20 21:49:25;;;;;;;0.77;0.20;;;7.00;99.90;;;;;;10353956;28;20567;-51
2021/03/20 21:54:46;;;;;;;0.52;0.30;;;6.80;99.90;;;;;;10341722;28;20481;-51
2021/03/20 22:00:08;;;;;;;1.40;0.30;;;6.70;99.90;;;;;;10360903;28;20037;-51
2021/03/20 22:05:30;;;;;;;1.80;0.30;;;6.70;99.90;;;;;;10329437;28;20404;-51
2021/03/20 22:10:53;;;;;;;0.98;0.13;;;6.60;99.90;;;;;;10312927;28;20077;-52
2021/03/20 22:16:14;;;;;;;0.25;0.03;;;6.50;99.90;;;;;;10329601;28;20049;-51
2021/03/20 22:21:35;;;;;;;0.10;0.00;;;6.60;99.90;;;;;;10328751;28;20678;-51
2021/03/20 22:26:56;;;;;;;0.15;0.10;;;6.40;99.90;;;;;;10331128;28;20410;-51
2021/03/20 22:32:17;;;;;;;1.48;0.52;;;6.40;99.90;;;;;;10334619;28;20502;-51
2021/03/20 22:37:38;;;;;;;1.25;0.73;;;6.40;99.90;;;;;;10336874;28;20060;-51
2021/03/20 22:42:59;;;;;;;0.55;0.25;;;6.50;99.90;;;;;;10332821;28;20674;-51
2021/03/20 22:48:21;;;;;;;3.55;1.17;;;6.50;99.90;;;;;;10372466;28;20044;-51
2021/03/20 22:53:42;;;;;;;0.90;0.30;;;6.50;99.90;;;;;;10372322;28;20144;-51
2021/03/20 22:59:03;;;;;;;0.32;0.15;;;6.50;99.90;;;;;;10377479;28;20044;-51
2021/03/20 23:04:24;;;;;;;0.80;0.30;;;6.50;99.90;;;;;;10342879;28;20400;-51
2021/03/20 23:09:46;;;;;;;1.33;0.60;;;6.40;99.90;;;;;;10353296;28;20050;-51
2021/03/20 23:15:07;;;;;;;1.20;0.35;;;6.50;99.90;;;;;;10366816;28;20206;-51
2021/03/20 23:20:29;;;;;;;0.45;0.15;;;6.50;99.90;;;;;;10374816;28;20053;-51
2021/03/20 23:25:50;;;;;;;1.70;0.73;;;6.50;99.90;;;;;;10377415;28;20025;-51
2021/03/20 23:31:12;;;;;;;2.67;0.50;;;6.50;99.90;;;;;;10368937;28;20103;-52
2021/03/20 23:36:36;;;;;;;1.08;0.63;;;6.50;99.90;;;;;;10365823;28;20037;-51
2021/03/20 23:41:57;;;;;;;1.50;0.38;;;6.60;99.90;;;;;;10364171;28;20632;-51
2021/03/20 23:47:18;;;;;;;2.58;0.88;;;6.50;99.90;;;;;;10359614;28;21424;-51
2021/03/20 23:52:39;;;;;;;3.58;0.40;;;6.50;99.90;;;;;;10373509;28;21284;-51
2021/03/20 23:58:02;;;;;;;2.58;0.55;;;6.50;99.90;;;;;;10374666;28;20061;-51
